Forside
METAR-TAF:

METAR-TAF

Lufthavne :

Marion County Regional Airport

Flippin, Arkansas, USA

Breddekreds: 36-18N, længdekreds: 092-28W, højde: 350 m

Aktuelle vejr

Denne rapport blev lavet for 14 minutter siden, kl. 11:56 UTC
Vind 9 kt fra sydsydøst med vindstød på up til 15 kt, varierende mellem sydøst og sydsydvest
Temperatur 7°C
Fugtighed 70%
Tryk 1016 hPa
Sigt: 16.1 km
Overskyet i en højde af 2600 ft

METAR: KFLP 221156Z AUTO 16009G15KT 130V200 10SM OVC026 07/02 A3000 RMK AO2 SLP159 T00670017 10067 20006 56012

Tid: 06:10 (12:10 UTC)


TAF: fraværende

Vejrobservationer og prognoser fra mere end 4000 lufthavne (METAR og TAF).

De gule og røde prikker repræsenterer de meteorologiske stationer.

Flyt musen over at se navnet på stationen.

Så klik over at se vejr observationer og prognoser.

At skifte det kort: Klik på de grønne knapper med et sort kors for at zoome ind; på den grønne knap med en bindestreg for at zoome ud; eller på de grønne pile for tilstødende kort.


METAR-TAF: